sensor_id;sensor_type;location;lat;lon;timestamp;temperature;humidity
24260;DHT22;12384;48.112;18.418;2023-11-19T00:00:39;1.30;66.70
24260;DHT22;12384;48.112;18.418;2023-11-19T00:03:07;1.30;66.00
24260;DHT22;12384;48.112;18.418;2023-11-19T00:05:36;1.30;66.00
24260;DHT22;12384;48.112;18.418;2023-11-19T00:08:04;1.30;66.10
24260;DHT22;12384;48.112;18.418;2023-11-19T00:10:37;1.40;66.30
24260;DHT22;12384;48.112;18.418;2023-11-19T00:13:05;1.40;66.30
24260;DHT22;12384;48.112;18.418;2023-11-19T00:15:35;1.40;66.40
24260;DHT22;12384;48.112;18.418;2023-11-19T00:18:03;1.40;66.30
24260;DHT22;12384;48.112;18.418;2023-11-19T00:20:32;1.40;66.20
24260;DHT22;12384;48.112;18.418;2023-11-19T00:23:01;1.40;66.30
24260;DHT22;12384;48.112;18.418;2023-11-19T00:25:29;1.50;66.50
24260;DHT22;12384;48.112;18.418;2023-11-19T00:27:59;1.50;66.50
24260;DHT22;12384;48.112;18.418;2023-11-19T00:30:28;1.50;66.60
24260;DHT22;12384;48.112;18.418;2023-11-19T00:32:59;1.50;66.60
24260;DHT22;12384;48.112;18.418;2023-11-19T00:35:27;1.50;66.90
24260;DHT22;12384;48.112;18.418;2023-11-19T00:37:56;1.60;67.00
24260;DHT22;12384;48.112;18.418;2023-11-19T00:40:25;1.50;66.90
24260;DHT22;12384;48.112;18.418;2023-11-19T00:42:53;1.60;67.00
24260;DHT22;12384;48.112;18.418;2023-11-19T00:45:24;1.60;67.00
24260;DHT22;12384;48.112;18.418;2023-11-19T00:47:54;1.60;67.10
24260;DHT22;12384;48.112;18.418;2023-11-19T00:50:23;1.60;67.00
24260;DHT22;12384;48.112;18.418;2023-11-19T00:52:51;1.60;67.10
24260;DHT22;12384;48.112;18.418;2023-11-19T00:55:20;1.60;67.10
24260;DHT22;12384;48.112;18.418;2023-11-19T00:57:49;1.60;67.10
24260;DHT22;12384;48.112;18.418;2023-11-19T01:00:17;1.70;67.10
24260;DHT22;12384;48.112;18.418;2023-11-19T01:02:49;1.60;67.00
24260;DHT22;12384;48.112;18.418;2023-11-19T01:05:19;1.60;67.10
24260;DHT22;12384;48.112;18.418;2023-11-19T01:07:50;1.60;68.00
24260;DHT22;12384;48.112;18.418;2023-11-19T01:10:22;1.70;67.40
24260;DHT22;12384;48.112;18.418;2023-11-19T01:12:51;1.70;67.40
24260;DHT22;12384;48.112;18.418;2023-11-19T01:15:21;1.70;67.40
24260;DHT22;12384;48.112;18.418;2023-11-19T01:17:51;1.70;67.20
24260;DHT22;12384;48.112;18.418;2023-11-19T01:20:20;1.60;67.10
24260;DHT22;12384;48.112;18.418;2023-11-19T01:22:49;1.70;67.30
24260;DHT22;12384;48.112;18.418;2023-11-19T01:25:18;1.60;67.20
24260;DHT22;12384;48.112;18.418;2023-11-19T01:27:47;1.60;67.20
24260;DHT22;12384;48.112;18.418;2023-11-19T01:30:17;1.60;68.10
24260;DHT22;12384;48.112;18.418;2023-11-19T01:32:50;1.60;67.30
24260;DHT22;12384;48.112;18.418;2023-11-19T01:35:19;1.60;67.20
24260;DHT22;12384;48.112;18.418;2023-11-19T01:37:50;1.60;67.20
24260;DHT22;12384;48.112;18.418;2023-11-19T01:40:20;1.60;67.10
24260;DHT22;12384;48.112;18.418;2023-11-19T01:42:49;1.60;67.20
24260;DHT22;12384;48.112;18.418;2023-11-19T01:45:27;1.50;67.20
24260;DHT22;12384;48.112;18.418;2023-11-19T01:48:02;1.50;67.30
24260;DHT22;12384;48.112;18.418;2023-11-19T01:50:33;1.50;67.40
24260;DHT22;12384;48.112;18.418;2023-11-19T01:53:02;1.50;68.20
24260;DHT22;12384;48.112;18.418;2023-11-19T01:55:31;1.50;68.20
24260;DHT22;12384;48.112;18.418;2023-11-19T01:58:01;1.40;67.40
24260;DHT22;12384;48.112;18.418;2023-11-19T02:00:31;1.50;67.60
24260;DHT22;12384;48.112;18.418;2023-11-19T02:03:03;1.40;67.50
24260;DHT22;12384;48.112;18.418;2023-11-19T02:05:35;1.40;67.50
24260;DHT22;12384;48.112;18.418;2023-11-19T02:08:04;1.40;67.70
24260;DHT22;12384;48.112;18.418;2023-11-19T02:10:32;1.40;67.90
24260;DHT22;12384;48.112;18.418;2023-11-19T02:13:01;1.40;67.90
24260;DHT22;12384;48.112;18.418;2023-11-19T02:15:33;1.40;68.00
24260;DHT22;12384;48.112;18.418;2023-11-19T02:18:21;1.30;68.10
24260;DHT22;12384;48.112;18.418;2023-11-19T02:20:50;1.30;68.00
24260;DHT22;12384;48.112;18.418;2023-11-19T02:23:20;1.20;68.00
24260;DHT22;12384;48.112;18.418;2023-11-19T02:28:44;1.20;68.20
24260;DHT22;12384;48.112;18.418;2023-11-19T02:31:12;1.20;68.30
24260;DHT22;12384;48.112;18.418;2023-11-19T02:33:41;1.20;68.40
24260;DHT22;12384;48.112;18.418;2023-11-19T02:36:10;1.20;68.70
24260;DHT22;12384;48.112;18.418;2023-11-19T02:38:39;1.20;69.00
24260;DHT22;12384;48.112;18.418;2023-11-19T02:41:07;1.10;69.20
24260;DHT22;12384;48.112;18.418;2023-11-19T02:43:37;1.10;69.40
24260;DHT22;12384;48.112;18.418;2023-11-19T02:46:07;1.10;69.50
24260;DHT22;12384;48.112;18.418;2023-11-19T02:48:39;1.10;69.60
24260;DHT22;12384;48.112;18.418;2023-11-19T02:51:09;1.10;69.80
24260;DHT22;12384;48.112;18.418;2023-11-19T02:53:38;1.10;70.50
24260;DHT22;12384;48.112;18.418;2023-11-19T02:56:08;1.10;70.50
24260;DHT22;12384;48.112;18.418;2023-11-19T02:58:47;1.10;70.60
24260;DHT22;12384;48.112;18.418;2023-11-19T03:01:23;1.10;70.70
24260;DHT22;12384;48.112;18.418;2023-11-19T03:03:59;1.10;71.00
24260;DHT22;12384;48.112;18.418;2023-11-19T03:06:28;1.10;71.20
24260;DHT22;12384;48.112;18.418;2023-11-19T03:08:57;1.10;72.00
24260;DHT22;12384;48.112;18.418;2023-11-19T03:11:25;1.10;71.70
24260;DHT22;12384;48.112;18.418;2023-11-19T03:13:54;1.10;71.80
24260;DHT22;12384;48.112;18.418;2023-11-19T03:16:24;1.10;71.90
24260;DHT22;12384;48.112;18.418;2023-11-19T03:18:52;1.10;71.90
24260;DHT22;12384;48.112;18.418;2023-11-19T03:21:28;1.10;71.90
24260;DHT22;12384;48.112;18.418;2023-11-19T03:23:56;1.10;72.10
24260;DHT22;12384;48.112;18.418;2023-11-19T03:26:27;1.10;72.30
24260;DHT22;12384;48.112;18.418;2023-11-19T03:28:55;1.10;72.40
24260;DHT22;12384;48.112;18.418;2023-11-19T03:31:25;1.10;72.50
24260;DHT22;12384;48.112;18.418;2023-11-19T03:33:54;1.10;72.50
24260;DHT22;12384;48.112;18.418;2023-11-19T03:36:31;1.10;73.30
24260;DHT22;12384;48.112;18.418;2023-11-19T03:39:01;1.10;72.80
24260;DHT22;12384;48.112;18.418;2023-11-19T03:41:30;1.10;72.80
24260;DHT22;12384;48.112;18.418;2023-11-19T03:44:01;1.10;72.80
24260;DHT22;12384;48.112;18.418;2023-11-19T03:46:31;1.10;72.70
24260;DHT22;12384;48.112;18.418;2023-11-19T03:49:00;1.10;72.80
24260;DHT22;12384;48.112;18.418;2023-11-19T03:51:29;1.10;72.90
24260;DHT22;12384;48.112;18.418;2023-11-19T03:53:57;1.10;73.20
24260;DHT22;12384;48.112;18.418;2023-11-19T03:56:26;1.10;73.80
24260;DHT22;12384;48.112;18.418;2023-11-19T03:58:55;1.10;74.10
24260;DHT22;12384;48.112;18.418;2023-11-19T04:01:23;1.00;74.00
24260;DHT22;12384;48.112;18.418;2023-11-19T04:03:53;1.10;74.30
24260;DHT22;12384;48.112;18.418;2023-11-19T04:06:23;1.10;74.60
24260;DHT22;12384;48.112;18.418;2023-11-19T04:08:52;1.00;74.60
24260;DHT22;12384;48.112;18.418;2023-11-19T04:11:20;1.10;74.70
24260;DHT22;12384;48.112;18.418;2023-11-19T04:13:49;1.00;74.60
24260;DHT22;12384;48.112;18.418;2023-11-19T04:16:17;1.10;74.70
24260;DHT22;12384;48.112;18.418;2023-11-19T04:18:46;1.00;74.60
24260;DHT22;12384;48.112;18.418;2023-11-19T04:21:16;1.00;74.60
24260;DHT22;12384;48.112;18.418;2023-11-19T04:23:44;1.00;74.60
24260;DHT22;12384;48.112;18.418;2023-11-19T04:26:13;1.00;74.70
24260;DHT22;12384;48.112;18.418;2023-11-19T04:28:43;1.00;74.80
24260;DHT22;12384;48.112;18.418;2023-11-19T04:31:11;1.00;74.90
24260;DHT22;12384;48.112;18.418;2023-11-19T04:33:40;1.00;75.00
24260;DHT22;12384;48.112;18.418;2023-11-19T04:36:09;1.00;75.20
24260;DHT22;12384;48.112;18.418;2023-11-19T04:38:40;1.00;75.80
24260;DHT22;12384;48.112;18.418;2023-11-19T04:41:08;1.00;76.00
24260;DHT22;12384;48.112;18.418;2023-11-19T04:43:37;1.10;76.50
24260;DHT22;12384;48.112;18.418;2023-11-19T04:46:06;1.10;76.80
24260;DHT22;12384;48.112;18.418;2023-11-19T04:48:35;1.10;77.10
24260;DHT22;12384;48.112;18.418;2023-11-19T04:51:07;1.10;77.30
24260;DHT22;12384;48.112;18.418;2023-11-19T04:53:36;1.10;77.50
24260;DHT22;12384;48.112;18.418;2023-11-19T04:56:09;1.20;77.80
24260;DHT22;12384;48.112;18.418;2023-11-19T04:58:38;1.20;78.00
24260;DHT22;12384;48.112;18.418;2023-11-19T05:01:13;1.20;78.30
24260;DHT22;12384;48.112;18.418;2023-11-19T05:03:44;1.20;78.60
24260;DHT22;12384;48.112;18.418;2023-11-19T05:06:13;1.30;79.10
24260;DHT22;12384;48.112;18.418;2023-11-19T05:08:42;1.30;79.30
24260;DHT22;12384;48.112;18.418;2023-11-19T05:11:12;1.40;79.40
24260;DHT22;12384;48.112;18.418;2023-11-19T05:13:45;1.40;79.30
24260;DHT22;12384;48.112;18.418;2023-11-19T05:16:13;1.40;79.80
24260;DHT22;12384;48.112;18.418;2023-11-19T05:18:42;1.40;79.40
24260;DHT22;12384;48.112;18.418;2023-11-19T05:21:11;1.50;78.70
24260;DHT22;12384;48.112;18.418;2023-11-19T05:23:39;1.50;78.30
24260;DHT22;12384;48.112;18.418;2023-11-19T05:26:09;1.50;78.60
24260;DHT22;12384;48.112;18.418;2023-11-19T05:28:39;1.50;78.90
24260;DHT22;12384;48.112;18.418;2023-11-19T05:31:08;1.50;79.20
24260;DHT22;12384;48.112;18.418;2023-11-19T05:33:36;1.60;79.60
24260;DHT22;12384;48.112;18.418;2023-11-19T05:36:06;1.60;79.80
24260;DHT22;12384;48.112;18.418;2023-11-19T05:38:35;1.60;79.70
24260;DHT22;12384;48.112;18.418;2023-11-19T05:41:05;1.60;79.40
24260;DHT22;12384;48.112;18.418;2023-11-19T05:43:33;1.60;79.50
24260;DHT22;12384;48.112;18.418;2023-11-19T05:46:04;1.60;79.60
24260;DHT22;12384;48.112;18.418;2023-11-19T05:48:46;1.60;79.40
24260;DHT22;12384;48.112;18.418;2023-11-19T05:51:15;1.70;79.00
24260;DHT22;12384;48.112;18.418;2023-11-19T05:53:44;1.70;78.70
24260;DHT22;12384;48.112;18.418;2023-11-19T05:56:13;1.70;78.60
24260;DHT22;12384;48.112;18.418;2023-11-19T05:58:43;1.70;78.70
24260;DHT22;12384;48.112;18.418;2023-11-19T06:01:14;1.70;78.60
24260;DHT22;12384;48.112;18.418;2023-11-19T06:03:42;1.70;78.50
24260;DHT22;12384;48.112;18.418;2023-11-19T06:06:15;1.70;78.60
24260;DHT22;12384;48.112;18.418;2023-11-19T06:08:43;1.70;78.90
24260;DHT22;12384;48.112;18.418;2023-11-19T06:11:12;1.70;79.10
24260;DHT22;12384;48.112;18.418;2023-11-19T06:13:45;1.70;79.30
24260;DHT22;12384;48.112;18.418;2023-11-19T06:16:16;1.70;79.40
24260;DHT22;12384;48.112;18.418;2023-11-19T06:18:45;1.70;79.10
24260;DHT22;12384;48.112;18.418;2023-11-19T06:21:14;1.70;78.60
24260;DHT22;12384;48.112;18.418;2023-11-19T06:23:43;1.70;78.60
24260;DHT22;12384;48.112;18.418;2023-11-19T06:26:11;1.70;78.50
24260;DHT22;12384;48.112;18.418;2023-11-19T06:28:41;1.60;78.40
24260;DHT22;12384;48.112;18.418;2023-11-19T06:31:10;1.60;78.40
24260;DHT22;12384;48.112;18.418;2023-11-19T06:33:39;1.60;78.40
24260;DHT22;12384;48.112;18.418;2023-11-19T06:36:08;1.60;78.60
24260;DHT22;12384;48.112;18.418;2023-11-19T06:38:37;1.60;78.90
24260;DHT22;12384;48.112;18.418;2023-11-19T06:41:08;1.60;79.00
24260;DHT22;12384;48.112;18.418;2023-11-19T06:43:37;1.60;79.90
24260;DHT22;12384;48.112;18.418;2023-11-19T06:46:15;1.60;79.00
24260;DHT22;12384;48.112;18.418;2023-11-19T06:48:45;1.60;78.90
24260;DHT22;12384;48.112;18.418;2023-11-19T06:51:14;1.60;78.70
24260;DHT22;12384;48.112;18.418;2023-11-19T06:53:43;1.60;78.40
24260;DHT22;12384;48.112;18.418;2023-11-19T06:56:20;1.60;78.20
24260;DHT22;12384;48.112;18.418;2023-11-19T06:58:50;1.60;78.10
24260;DHT22;12384;48.112;18.418;2023-11-19T07:01:19;1.60;78.10
24260;DHT22;12384;48.112;18.418;2023-11-19T07:03:49;1.60;78.10
24260;DHT22;12384;48.112;18.418;2023-11-19T07:06:18;1.60;78.10
24260;DHT22;12384;48.112;18.418;2023-11-19T07:09:01;1.60;78.20
24260;DHT22;12384;48.112;18.418;2023-11-19T07:11:37;1.60;78.40
24260;DHT22;12384;48.112;18.418;2023-11-19T07:14:07;1.60;78.60
24260;DHT22;12384;48.112;18.418;2023-11-19T07:16:36;1.50;78.50
24260;DHT22;12384;48.112;18.418;2023-11-19T07:19:07;1.50;78.90
24260;DHT22;12384;48.112;18.418;2023-11-19T07:21:36;1.50;79.00
24260;DHT22;12384;48.112;18.418;2023-11-19T07:24:07;1.50;78.90
24260;DHT22;12384;48.112;18.418;2023-11-19T07:26:35;1.50;79.70
24260;DHT22;12384;48.112;18.418;2023-11-19T07:29:04;1.50;79.10
24260;DHT22;12384;48.112;18.418;2023-11-19T07:31:35;1.50;79.30
24260;DHT22;12384;48.112;18.418;2023-11-19T07:34:04;1.50;79.40
24260;DHT22;12384;48.112;18.418;2023-11-19T07:36:35;1.50;79.90
24260;DHT22;12384;48.112;18.418;2023-11-19T07:39:03;1.50;80.20
24260;DHT22;12384;48.112;18.418;2023-11-19T07:41:32;1.50;80.50
24260;DHT22;12384;48.112;18.418;2023-11-19T07:44:05;1.50;80.70
24260;DHT22;12384;48.112;18.418;2023-11-19T07:46:35;1.50;80.70
24260;DHT22;12384;48.112;18.418;2023-11-19T07:49:04;1.60;81.20
24260;DHT22;12384;48.112;18.418;2023-11-19T07:51:32;1.60;81.40
24260;DHT22;12384;48.112;18.418;2023-11-19T07:54:02;1.60;81.70
24260;DHT22;12384;48.112;18.418;2023-11-19T07:56:32;1.60;81.70
24260;DHT22;12384;48.112;18.418;2023-11-19T07:59:01;1.60;82.20
24260;DHT22;12384;48.112;18.418;2023-11-19T08:01:30;1.60;82.90
24260;DHT22;12384;48.112;18.418;2023-11-19T08:03:58;1.60;83.70
24260;DHT22;12384;48.112;18.418;2023-11-19T08:06:29;1.60;84.60
24260;DHT22;12384;48.112;18.418;2023-11-19T08:08:58;1.60;84.30
24260;DHT22;12384;48.112;18.418;2023-11-19T08:11:28;1.60;84.20
24260;DHT22;12384;48.112;18.418;2023-11-19T08:13:57;1.60;84.10
24260;DHT22;12384;48.112;18.418;2023-11-19T08:16:25;1.60;84.20
24260;DHT22;12384;48.112;18.418;2023-11-19T08:18:54;1.60;86.40
24260;DHT22;12384;48.112;18.418;2023-11-19T08:21:22;1.70;87.10
24260;DHT22;12384;48.112;18.418;2023-11-19T08:23:51;1.70;88.00
24260;DHT22;12384;48.112;18.418;2023-11-19T08:26:19;1.70;88.20
24260;DHT22;12384;48.112;18.418;2023-11-19T08:28:49;1.70;88.90
24260;DHT22;12384;48.112;18.418;2023-11-19T08:31:19;1.80;89.20
24260;DHT22;12384;48.112;18.418;2023-11-19T08:33:47;1.80;89.80
24260;DHT22;12384;48.112;18.418;2023-11-19T08:36:16;1.80;90.20
24260;DHT22;12384;48.112;18.418;2023-11-19T08:38:45;1.90;90.20
24260;DHT22;12384;48.112;18.418;2023-11-19T08:41:14;1.90;90.10
24260;DHT22;12384;48.112;18.418;2023-11-19T08:43:45;1.90;90.10
24260;DHT22;12384;48.112;18.418;2023-11-19T08:46:15;2.00;90.40
24260;DHT22;12384;48.112;18.418;2023-11-19T08:48:44;2.00;90.80
24260;DHT22;12384;48.112;18.418;2023-11-19T08:51:13;2.10;91.00
24260;DHT22;12384;48.112;18.418;2023-11-19T08:53:41;2.10;91.10
24260;DHT22;12384;48.112;18.418;2023-11-19T08:56:10;2.20;91.20
24260;DHT22;12384;48.112;18.418;2023-11-19T08:58:39;2.20;91.10
24260;DHT22;12384;48.112;18.418;2023-11-19T09:01:07;2.30;91.00
24260;DHT22;12384;48.112;18.418;2023-11-19T09:03:38;2.30;90.80
24260;DHT22;12384;48.112;18.418;2023-11-19T09:06:08;2.30;90.40
24260;DHT22;12384;48.112;18.418;2023-11-19T09:08:36;2.40;90.00
24260;DHT22;12384;48.112;18.418;2023-11-19T09:11:07;2.40;89.80
24260;DHT22;12384;48.112;18.418;2023-11-19T09:13:36;2.40;89.60
24260;DHT22;12384;48.112;18.418;2023-11-19T09:16:05;2.40;89.50
24260;DHT22;12384;48.112;18.418;2023-11-19T09:18:34;2.40;89.20
24260;DHT22;12384;48.112;18.418;2023-11-19T09:21:04;2.40;89.00
24260;DHT22;12384;48.112;18.418;2023-11-19T09:23:34;2.40;89.00
24260;DHT22;12384;48.112;18.418;2023-11-19T09:26:08;2.40;88.80
24260;DHT22;12384;48.112;18.418;2023-11-19T09:28:37;2.40;88.70
24260;DHT22;12384;48.112;18.418;2023-11-19T09:31:13;2.40;89.70
24260;DHT22;12384;48.112;18.418;2023-11-19T09:33:42;2.40;89.70
24260;DHT22;12384;48.112;18.418;2023-11-19T09:36:13;2.40;89.40
24260;DHT22;12384;48.112;18.418;2023-11-19T09:38:44;2.40;89.80
24260;DHT22;12384;48.112;18.418;2023-11-19T09:41:12;2.40;89.10
24260;DHT22;12384;48.112;18.418;2023-11-19T09:43:41;2.40;89.20
24260;DHT22;12384;48.112;18.418;2023-11-19T09:46:11;2.40;89.00
24260;DHT22;12384;48.112;18.418;2023-11-19T09:48:41;2.40;88.40
24260;DHT22;12384;48.112;18.418;2023-11-19T09:51:12;2.40;88.40
24260;DHT22;12384;48.112;18.418;2023-11-19T09:53:41;2.40;88.90
24260;DHT22;12384;48.112;18.418;2023-11-19T09:56:09;2.50;89.50
24260;DHT22;12384;48.112;18.418;2023-11-19T09:58:42;2.50;90.00
24260;DHT22;12384;48.112;18.418;2023-11-19T10:01:10;2.50;90.10
24260;DHT22;12384;48.112;18.418;2023-11-19T10:03:43;2.50;90.20
24260;DHT22;12384;48.112;18.418;2023-11-19T10:06:17;2.60;90.30
24260;DHT22;12384;48.112;18.418;2023-11-19T10:08:46;2.60;90.50
24260;DHT22;12384;48.112;18.418;2023-11-19T10:11:15;2.60;90.70
24260;DHT22;12384;48.112;18.418;2023-11-19T10:13:43;2.70;90.70
24260;DHT22;12384;48.112;18.418;2023-11-19T10:16:15;2.70;90.60
24260;DHT22;12384;48.112;18.418;2023-11-19T10:18:45;2.70;91.00
24260;DHT22;12384;48.112;18.418;2023-11-19T10:21:14;2.80;91.20
24260;DHT22;12384;48.112;18.418;2023-11-19T10:23:51;2.80;91.40
24260;DHT22;12384;48.112;18.418;2023-11-19T10:26:21;2.90;91.70
24260;DHT22;12384;48.112;18.418;2023-11-19T10:28:50;2.90;91.80
24260;DHT22;12384;48.112;18.418;2023-11-19T10:31:20;3.00;91.70
24260;DHT22;12384;48.112;18.418;2023-11-19T10:33:52;3.00;91.70
24260;DHT22;12384;48.112;18.418;2023-11-19T10:36:22;3.00;91.80
24260;DHT22;12384;48.112;18.418;2023-11-19T10:38:56;3.00;92.00
24260;DHT22;12384;48.112;18.418;2023-11-19T10:41:29;3.10;92.00
24260;DHT22;12384;48.112;18.418;2023-11-19T10:43:59;3.10;91.70
24260;DHT22;12384;48.112;18.418;2023-11-19T10:46:38;3.10;91.70
24260;DHT22;12384;48.112;18.418;2023-11-19T10:49:08;3.10;91.70
24260;DHT22;12384;48.112;18.418;2023-11-19T10:51:43;3.10;91.80
24260;DHT22;12384;48.112;18.418;2023-11-19T10:54:18;3.10;91.60
24260;DHT22;12384;48.112;18.418;2023-11-19T10:56:54;3.20;91.90
24260;DHT22;12384;48.112;18.418;2023-11-19T10:59:24;3.20;91.70
24260;DHT22;12384;48.112;18.418;2023-11-19T11:04:32;3.20;91.60
24260;DHT22;12384;48.112;18.418;2023-11-19T11:07:02;3.20;91.50
24260;DHT22;12384;48.112;18.418;2023-11-19T11:09:32;3.20;91.50
24260;DHT22;12384;48.112;18.418;2023-11-19T11:12:02;3.20;91.80
24260;DHT22;12384;48.112;18.418;2023-11-19T11:14:32;3.20;91.90
24260;DHT22;12384;48.112;18.418;2023-11-19T11:17:03;3.20;92.20
24260;DHT22;12384;48.112;18.418;2023-11-19T11:19:35;3.20;92.90
24260;DHT22;12384;48.112;18.418;2023-11-19T11:22:04;3.30;93.50
24260;DHT22;12384;48.112;18.418;2023-11-19T11:25:01;3.40;93.80
24260;DHT22;12384;48.112;18.418;2023-11-19T11:27:50;3.40;94.10
24260;DHT22;12384;48.112;18.418;2023-11-19T11:30:29;3.50;95.00
24260;DHT22;12384;48.112;18.418;2023-11-19T11:33:13;3.70;95.70
24260;DHT22;12384;48.112;18.418;2023-11-19T11:35:53;3.80;96.10
24260;DHT22;12384;48.112;18.418;2023-11-19T11:38:24;3.90;95.80
24260;DHT22;12384;48.112;18.418;2023-11-19T11:41:16;4.00;95.40
24260;DHT22;12384;48.112;18.418;2023-11-19T11:43:47;4.00;95.00
24260;DHT22;12384;48.112;18.418;2023-11-19T11:49:28;4.10;94.10
24260;DHT22;12384;48.112;18.418;2023-11-19T11:52:00;4.10;93.30
24260;DHT22;12384;48.112;18.418;2023-11-19T11:54:30;4.10;92.80
24260;DHT22;12384;48.112;18.418;2023-11-19T11:57:10;4.10;92.20
24260;DHT22;12384;48.112;18.418;2023-11-19T11:59:48;4.00;91.70
24260;DHT22;12384;48.112;18.418;2023-11-19T12:02:19;4.00;91.50
24260;DHT22;12384;48.112;18.418;2023-11-19T12:04:50;4.00;91.20
24260;DHT22;12384;48.112;18.418;2023-11-19T12:07:21;4.00;90.90
24260;DHT22;12384;48.112;18.418;2023-11-19T12:10:05;3.90;90.90
24260;DHT22;12384;48.112;18.418;2023-11-19T12:12:37;3.90;90.80
24260;DHT22;12384;48.112;18.418;2023-11-19T12:15:08;3.80;90.50
24260;DHT22;12384;48.112;18.418;2023-11-19T12:17:46;3.80;90.60
24260;DHT22;12384;48.112;18.418;2023-11-19T12:20:18;3.80;90.70
24260;DHT22;12384;48.112;18.418;2023-11-19T12:22:51;3.70;90.90
24260;DHT22;12384;48.112;18.418;2023-11-19T12:25:21;3.70;91.10
24260;DHT22;12384;48.112;18.418;2023-11-19T12:27:52;3.70;91.20
24260;DHT22;12384;48.112;18.418;2023-11-19T12:30:23;3.70;91.50
24260;DHT22;12384;48.112;18.418;2023-11-19T12:32:53;3.80;91.80
24260;DHT22;12384;48.112;18.418;2023-11-19T12:35:23;3.80;92.00
24260;DHT22;12384;48.112;18.418;2023-11-19T12:37:52;3.80;92.10
24260;DHT22;12384;48.112;18.418;2023-11-19T12:40:22;3.80;92.20
24260;DHT22;12384;48.112;18.418;2023-11-19T12:42:53;3.80;92.30
24260;DHT22;12384;48.112;18.418;2023-11-19T12:45:22;3.80;92.70
24260;DHT22;12384;48.112;18.418;2023-11-19T12:48:04;3.80;93.20
24260;DHT22;12384;48.112;18.418;2023-11-19T12:50:51;3.80;93.50
24260;DHT22;12384;48.112;18.418;2023-11-19T12:53:20;3.90;93.70
24260;DHT22;12384;48.112;18.418;2023-11-19T12:55:49;3.80;93.60
24260;DHT22;12384;48.112;18.418;2023-11-19T12:58:33;3.80;93.50
24260;DHT22;12384;48.112;18.418;2023-11-19T13:01:04;3.90;93.40
24260;DHT22;12384;48.112;18.418;2023-11-19T13:03:34;3.80;93.30
24260;DHT22;12384;48.112;18.418;2023-11-19T13:06:04;3.80;93.30
24260;DHT22;12384;48.112;18.418;2023-11-19T13:08:39;3.80;93.60
24260;DHT22;12384;48.112;18.418;2023-11-19T13:11:08;3.80;93.40
24260;DHT22;12384;48.112;18.418;2023-11-19T13:13:58;3.80;93.70
24260;DHT22;12384;48.112;18.418;2023-11-19T13:16:28;3.80;93.90
24260;DHT22;12384;48.112;18.418;2023-11-19T13:18:57;3.80;94.20
24260;DHT22;12384;48.112;18.418;2023-11-19T13:21:27;3.80;94.30
24260;DHT22;12384;48.112;18.418;2023-11-19T13:23:56;3.80;94.50
24260;DHT22;12384;48.112;18.418;2023-11-19T13:26:25;3.80;94.70
24260;DHT22;12384;48.112;18.418;2023-11-19T13:28:54;3.80;95.00
24260;DHT22;12384;48.112;18.418;2023-11-19T13:31:24;3.80;95.20
24260;DHT22;12384;48.112;18.418;2023-11-19T13:33:52;3.80;95.30
24260;DHT22;12384;48.112;18.418;2023-11-19T13:36:21;3.80;95.40
24260;DHT22;12384;48.112;18.418;2023-11-19T13:38:50;3.80;95.40
24260;DHT22;12384;48.112;18.418;2023-11-19T13:41:19;3.80;95.40
24260;DHT22;12384;48.112;18.418;2023-11-19T13:43:48;3.80;95.40
24260;DHT22;12384;48.112;18.418;2023-11-19T13:46:17;3.80;95.40
24260;DHT22;12384;48.112;18.418;2023-11-19T13:48:47;3.80;95.50
24260;DHT22;12384;48.112;18.418;2023-11-19T13:51:17;3.80;95.60
24260;DHT22;12384;48.112;18.418;2023-11-19T13:53:45;3.80;95.80
24260;DHT22;12384;48.112;18.418;2023-11-19T13:56:17;3.90;95.80
24260;DHT22;12384;48.112;18.418;2023-11-19T13:58:45;3.80;95.80
24260;DHT22;12384;48.112;18.418;2023-11-19T14:01:14;3.90;95.90
24260;DHT22;12384;48.112;18.418;2023-11-19T14:03:43;3.80;95.80
24260;DHT22;12384;48.112;18.418;2023-11-19T14:06:13;3.80;95.90
24260;DHT22;12384;48.112;18.418;2023-11-19T14:08:41;3.80;96.10
24260;DHT22;12384;48.112;18.418;2023-11-19T14:11:10;3.80;96.10
24260;DHT22;12384;48.112;18.418;2023-11-19T14:13:38;3.80;96.20
24260;DHT22;12384;48.112;18.418;2023-11-19T14:16:10;3.70;96.20
24260;DHT22;12384;48.112;18.418;2023-11-19T14:18:40;3.70;96.50
24260;DHT22;12384;48.112;18.418;2023-11-19T14:21:08;3.70;96.70
24260;DHT22;12384;48.112;18.418;2023-11-19T14:23:38;3.70;97.10
24260;DHT22;12384;48.112;18.418;2023-11-19T14:26:07;3.70;97.30
24260;DHT22;12384;48.112;18.418;2023-11-19T14:28:35;3.70;97.30
24260;DHT22;12384;48.112;18.418;2023-11-19T14:31:21;3.70;97.50
24260;DHT22;12384;48.112;18.418;2023-11-19T14:33:50;3.60;97.60
24260;DHT22;12384;48.112;18.418;2023-11-19T14:36:21;3.70;97.80
24260;DHT22;12384;48.112;18.418;2023-11-19T14:38:51;3.60;97.90
24260;DHT22;12384;48.112;18.418;2023-11-19T14:41:20;3.60;98.10
24260;DHT22;12384;48.112;18.418;2023-11-19T14:43:48;3.60;98.40
24260;DHT22;12384;48.112;18.418;2023-11-19T14:46:17;3.60;98.50
24260;DHT22;12384;48.112;18.418;2023-11-19T14:48:45;3.60;98.70
24260;DHT22;12384;48.112;18.418;2023-11-19T14:51:14;3.60;98.90
24260;DHT22;12384;48.112;18.418;2023-11-19T14:53:42;3.60;99.10
24260;DHT22;12384;48.112;18.418;2023-11-19T14:56:12;3.70;99.30
24260;DHT22;12384;48.112;18.418;2023-11-19T14:58:41;3.70;99.40
24260;DHT22;12384;48.112;18.418;2023-11-19T15:01:12;3.70;99.30
24260;DHT22;12384;48.112;18.418;2023-11-19T15:03:41;3.70;99.30
24260;DHT22;12384;48.112;18.418;2023-11-19T15:06:12;3.70;99.20
24260;DHT22;12384;48.112;18.418;2023-11-19T15:08:42;3.70;99.20
24260;DHT22;12384;48.112;18.418;2023-11-19T15:11:13;3.70;99.30
24260;DHT22;12384;48.112;18.418;2023-11-19T15:13:41;3.60;99.40
24260;DHT22;12384;48.112;18.418;2023-11-19T15:16:10;3.60;99.70
24260;DHT22;12384;48.112;18.418;2023-11-19T15:18:39;3.70;99.40
24260;DHT22;12384;48.112;18.418;2023-11-19T15:21:08;3.60;99.40
24260;DHT22;12384;48.112;18.418;2023-11-19T15:23:36;3.60;99.40
24260;DHT22;12384;48.112;18.418;2023-11-19T15:26:06;3.60;99.40
24260;DHT22;12384;48.112;18.418;2023-11-19T15:28:38;3.60;99.40
24260;DHT22;12384;48.112;18.418;2023-11-19T15:31:07;3.60;99.50
24260;DHT22;12384;48.112;18.418;2023-11-19T15:33:37;3.60;99.60
24260;DHT22;12384;48.112;18.418;2023-11-19T15:36:06;3.60;99.70
24260;DHT22;12384;48.112;18.418;2023-11-19T15:38:36;3.60;99.90
24260;DHT22;12384;48.112;18.418;2023-11-19T15:41:07;3.60;99.90
24260;DHT22;12384;48.112;18.418;2023-11-19T15:43:41;3.60;99.90
24260;DHT22;12384;48.112;18.418;2023-11-19T15:46:10;3.60;99.90
24260;DHT22;12384;48.112;18.418;2023-11-19T15:48:39;3.60;99.90
24260;DHT22;12384;48.112;18.418;2023-11-19T15:51:08;3.50;99.90
24260;DHT22;12384;48.112;18.418;2023-11-19T15:53:37;3.60;99.90
24260;DHT22;12384;48.112;18.418;2023-11-19T15:56:06;3.50;99.90
24260;DHT22;12384;48.112;18.418;2023-11-19T15:58:35;3.50;99.90